Muskoka Airport
CYQA : now visible

Airfield :











YOU CAN JOIN US ON...

 
LOGIN :

Register | Disclaimer

   EN    FR    IT 

 









Legend :    VFR   Marginal VFR   IFR   Intensive IFR   Very Intensive IFR
Visi :
Ceiling :
>= 8 km
>= 3000ft
5 to 8 km
1000 to 3000 ft
1500m to 5 km
500 to 1000 ft
800 to 1500m
200 to 500 ft
< 800m
< 200 ft
Symbols :   Thunderstorms  Fog  Heavy snow  Heavy precipitations  Wind > 20 kt






- Airport Elevation : 925 ft
- IATA code : YQA


CYQA - Muskoka

CURRENT METAR :
  • 191600Z AUTO 18008KT 140V260 9SM CLR 26/14 A3003 RMK SLP169 DENSITY ALT 2400FT

EXPIRED METARs :
  • 191500Z AUTO 17004KT 120V230 9SM CLR 25/14 A3003 RMK SLP169 DENSITY ALT 2200FT
  • 191400Z AUTO 15004KT 110V190 9SM CLR 23/15 A3002 RMK SLP167 DENSITY ALT 2000FT

TAF TAF CYQA
Valid from the 19 at 14:00 until the 20 at 02:00 UTC


191340Z 1914/2002 VRB03KT P6SM SKC
FM191500 19008KT P6SM SCT060
FM191900 24012KT P6SM BKN060
TEMPO 1919/2002 P6SM -SHRA
PROB30 1920/1923 2SM TSRA BR OVC060CB RMK FCST BASED ON AUTO OBS. NXT FCST BY 192000Z
CZYZ FIR / North America



MET'MAP, your aeronautical weather chart ! - Copyright ORBIFLY December 2007 - Disclaimer

ORBIFLY MET'MAP TEAM :

Programming & Development : Alexandra Zaïnal
Original concept : Baudouin d'Aumeries
Technical & hardware support : Manuel Goepfert
Assistance : Marc-Olivier Méhu




SOURCES & CREDITS :

   NOAA       Earth
Advisory